Time;durP1;ratioP1;P1;durP2;ratioP2;P2;SDS_P1;SDS_P2;PMS_P1;PMS_P2;Temp;Humidity;BMP_temperature;BMP_pressure;BME280_temperature;BME280_humidity;BME280_pressure;Samples;Min_cycle;Max_cycle;Signal;HPM_P1;HPM_P2
2021/05/13 00:01:57;;;;;;;57.30;36.95;;;10.10;99.90;;;;;;5089935;28;20098;-65
2021/05/13 00:04:23;;;;;;;63.30;37.03;;;10.10;99.90;;;;;;5090402;28;20473;-65
2021/05/13 00:06:48;;;;;;;59.03;36.92;;;10.10;99.90;;;;;;5090351;28;20020;-65
2021/05/13 00:09:14;;;;;;;63.17;39.90;;;10.00;99.90;;;;;;5080010;28;20072;-65
2021/05/13 00:11:43;;;;;;;60.17;39.75;;;10.00;99.90;;;;;;5075332;28;20056;-65
2021/05/13 00:14:09;;;;;;;58.03;38.47;;;10.00;99.90;;;;;;5076726;28;20028;-65
2021/05/13 00:16:36;;;;;;;56.83;38.20;;;9.90;99.90;;;;;;5076317;28;20059;-65
2021/05/13 00:19:07;;;;;;;60.72;40.70;;;9.90;99.90;;;;;;5076652;28;20087;-65
2021/05/13 00:21:40;;;;;;;67.00;43.00;;;9.90;99.90;;;;;;5076447;28;20116;-65
2021/05/13 00:24:07;;;;;;;66.28;41.88;;;9.90;99.90;;;;;;5075462;28;20512;-65
2021/05/13 00:26:38;;;;;;;76.28;45.28;;;9.90;99.90;;;;;;5076216;28;20040;-65
2021/05/13 00:29:05;;;;;;;70.22;42.78;;;9.90;99.90;;;;;;5076425;28;20519;-64
2021/05/13 00:31:31;;;;;;;62.97;41.63;;;9.80;99.90;;;;;;5076118;28;20031;-65
2021/05/13 00:33:59;;;;;;;67.40;43.30;;;9.90;99.90;;;;;;5076083;28;20103;-65
2021/05/13 00:36:28;;;;;;;69.63;45.35;;;9.80;99.90;;;;;;5076250;28;20530;-65
2021/05/13 00:38:53;;;;;;;67.78;43.17;;;9.80;99.90;;;;;;5075657;28;20021;-64
2021/05/13 00:41:19;;;;;;;76.47;46.22;;;9.80;99.90;;;;;;5076241;28;20021;-65
2021/05/13 00:43:44;;;;;;;76.93;48.88;;;9.80;99.90;;;;;;5075635;28;20062;-65
2021/05/13 00:46:10;;;;;;;70.63;45.83;;;9.80;99.90;;;;;;5075508;28;20024;-65
2021/05/13 00:48:39;;;;;;;77.20;48.65;;;9.80;99.90;;;;;;5075809;28;20020;-65
2021/05/13 00:51:04;;;;;;;79.10;49.42;;;9.80;99.90;;;;;;5075748;28;20369;-64
2021/05/13 00:53:30;;;;;;;80.28;49.75;;;9.80;99.90;;;;;;5076002;28;20020;-65
2021/05/13 00:55:56;;;;;;;77.05;49.28;;;9.70;99.90;;;;;;5075949;28;20035;-65
2021/05/13 00:58:25;;;;;;;82.75;52.13;;;9.60;99.90;;;;;;5075161;28;20456;-65
2021/05/13 01:01:03;;;;;;;83.80;50.63;;;9.60;99.90;;;;;;5075602;28;20021;-65
2021/05/13 01:03:28;;;;;;;84.40;52.97;;;9.50;99.90;;;;;;5075820;28;20103;-65
2021/05/13 01:05:54;;;;;;;81.07;52.65;;;9.50;99.90;;;;;;5075732;28;20101;-65
2021/05/13 01:08:19;;;;;;;80.78;50.13;;;9.50;99.90;;;;;;5075702;28;20031;-65
2021/05/13 01:10:46;;;;;;;76.43;49.55;;;9.40;99.90;;;;;;5075645;28;20090;-65
2021/05/13 01:13:17;;;;;;;79.65;50.17;;;9.30;99.90;;;;;;5075309;28;20525;-65
2021/05/13 01:15:47;;;;;;;78.65;48.85;;;9.30;99.90;;;;;;5075217;28;20032;-65
2021/05/13 01:18:18;;;;;;;74.85;46.63;;;9.20;99.90;;;;;;5074855;28;20555;-65
2021/05/13 01:20:45;;;;;;;73.72;46.63;;;9.20;99.90;;;;;;5074457;28;20470;-64
2021/05/13 01:23:13;;;;;;;69.65;46.70;;;9.10;99.90;;;;;;5075220;28;20028;-65
2021/05/13 01:25:48;;;;;;;72.07;48.13;;;9.10;99.90;;;;;;5074815;28;20066;-65
2021/05/13 01:28:14;;;;;;;80.03;47.70;;;9.10;99.90;;;;;;5075233;28;20020;-68
2021/05/13 01:30:42;;;;;;;77.45;51.15;;;9.00;99.90;;;;;;5075248;28;20036;-69
2021/05/13 01:33:09;;;;;;;82.15;50.83;;;9.00;99.90;;;;;;5074924;28;20477;-69
2021/05/13 01:35:34;;;;;;;84.45;52.20;;;8.90;99.90;;;;;;5075137;28;20056;-69
2021/05/13 01:38:06;;;;;;;94.28;56.97;;;8.90;99.90;;;;;;5075028;28;20060;-68
2021/05/13 01:40:32;;;;;;;97.28;57.88;;;8.90;99.90;;;;;;5075041;28;20020;-68
2021/05/13 01:42:58;;;;;;;108.97;62.72;;;9.00;99.90;;;;;;5074738;28;20031;-68
2021/05/13 01:45:24;;;;;;;113.68;63.78;;;9.10;99.90;;;;;;5073132;28;20099;-67
2021/05/13 01:47:49;;;;;;;111.22;63.72;;;9.20;99.90;;;;;;5074382;28;20024;-68
2021/05/13 01:50:15;;;;;;;103.90;61.25;;;9.20;99.90;;;;;;5074864;28;20021;-68
2021/05/13 01:52:40;;;;;;;114.10;64.20;;;9.20;99.90;;;;;;5074575;28;20085;-69
2021/05/13 01:55:06;;;;;;;112.13;64.03;;;9.20;99.90;;;;;;5074760;28;20028;-68
2021/05/13 01:57:32;;;;;;;98.82;59.53;;;9.30;99.90;;;;;;5073937;28;20083;-68
2021/05/13 01:59:57;;;;;;;97.95;58.10;;;9.30;99.90;;;;;;5074685;28;20024;-68
2021/05/13 02:02:23;;;;;;;94.57;58.50;;;9.30;99.90;;;;;;5074353;28;20029;-68
2021/05/13 02:04:49;;;;;;;96.78;58.35;;;9.30;99.90;;;;;;5074299;28;20082;-68
2021/05/13 02:07:15;;;;;;;88.75;55.55;;;9.20;99.90;;;;;;5074286;28;20020;-69
2021/05/13 02:09:41;;;;;;;88.32;54.15;;;9.20;99.90;;;;;;5074255;28;20104;-69
2021/05/13 02:12:07;;;;;;;90.35;56.65;;;9.10;99.90;;;;;;5073308;28;20031;-68
2021/05/13 02:14:32;;;;;;;92.50;56.95;;;9.00;99.90;;;;;;5074440;28;20033;-69
2021/05/13 02:16:58;;;;;;;93.90;58.42;;;9.00;99.90;;;;;;5074032;28;20033;-68
2021/05/13 02:19:23;;;;;;;104.70;62.10;;;9.00;99.90;;;;;;5074396;28;20051;-68
2021/05/13 02:21:49;;;;;;;103.60;60.65;;;9.00;99.90;;;;;;5074094;28;20074;-68
2021/05/13 02:24:14;;;;;;;101.50;61.10;;;8.90;99.90;;;;;;5074309;28;20021;-69
2021/05/13 02:26:40;;;;;;;95.50;57.60;;;8.90;99.90;;;;;;5074022;28;20082;-68
2021/05/13 02:29:06;;;;;;;89.25;56.13;;;8.80;99.90;;;;;;5074232;28;20420;-69
2021/05/13 02:31:31;;;;;;;96.60;57.38;;;8.80;99.90;;;;;;5074048;28;20111;-69
2021/05/13 02:33:57;;;;;;;96.30;56.75;;;8.70;99.90;;;;;;5073937;28;20134;-68
2021/05/13 02:36:22;;;;;;;84.80;53.88;;;8.70;99.90;;;;;;5073834;28;20521;-68
2021/05/13 02:38:48;;;;;;;91.95;56.47;;;8.70;99.90;;;;;;5074125;28;20099;-68
2021/05/13 02:41:13;;;;;;;93.43;55.83;;;8.60;99.90;;;;;;5073806;28;20033;-68
2021/05/13 02:43:39;;;;;;;101.25;59.60;;;8.50;99.90;;;;;;5074101;28;20031;-68
2021/05/13 02:46:04;;;;;;;97.45;57.97;;;8.40;99.90;;;;;;5073679;28;20031;-68
2021/05/13 02:48:30;;;;;;;99.90;59.35;;;8.40;99.90;;;;;;5073525;28;20033;-68
2021/05/13 02:50:56;;;;;;;95.45;59.10;;;8.40;99.90;;;;;;5074016;28;20572;-68
2021/05/13 02:53:21;;;;;;;94.70;57.85;;;8.40;99.90;;;;;;5073984;28;20039;-69
2021/05/13 02:55:47;;;;;;;99.53;60.65;;;8.30;99.90;;;;;;5073960;28;20025;-68
2021/05/13 02:58:12;;;;;;;93.30;57.13;;;8.30;99.90;;;;;;5073204;28;20082;-68
2021/05/13 03:00:51;;;;;;;96.95;59.15;;;8.30;99.90;;;;;;5073635;28;20355;-68
2021/05/13 03:03:16;;;;;;;101.80;59.97;;;8.30;99.90;;;;;;5073902;28;20048;-68
2021/05/13 03:05:42;;;;;;;93.88;56.05;;;8.20;99.90;;;;;;5073859;28;20051;-68
2021/05/13 03:08:09;;;;;;;91.68;55.25;;;8.30;99.90;;;;;;5072408;28;20036;-68
2021/05/13 03:10:43;;;;;;;89.20;56.05;;;8.20;99.90;;;;;;5073796;28;20099;-68
2021/05/13 03:13:13;;;;;;;93.88;56.67;;;8.10;99.90;;;;;;5073528;28;20440;-68
2021/05/13 03:15:38;;;;;;;91.45;55.30;;;8.10;99.90;;;;;;5073698;28;20062;-68
2021/05/13 03:18:05;;;;;;;90.38;55.33;;;8.00;99.90;;;;;;5073111;28;20061;-68
2021/05/13 03:20:37;;;;;;;93.40;57.90;;;8.00;99.90;;;;;;5073724;28;20023;-68
2021/05/13 03:23:06;;;;;;;105.75;62.60;;;7.90;99.90;;;;;;5073428;28;20027;-68
2021/05/13 03:25:35;;;;;;;110.57;62.47;;;7.90;99.90;;;;;;5073373;28;20528;-68
2021/05/13 03:28:15;;;;;;;116.53;64.70;;;7.90;99.90;;;;;;5073353;28;20032;-68
2021/05/13 03:30:44;;;;;;;131.60;72.13;;;7.90;99.90;;;;;;5073645;28;20408;-68
2021/05/13 03:33:12;;;;;;;119.93;67.78;;;8.00;99.90;;;;;;5073627;28;20473;-68
2021/05/13 03:35:38;;;;;;;151.25;80.28;;;8.00;99.90;;;;;;5072352;28;20080;-68
2021/05/13 03:38:05;;;;;;;145.02;77.63;;;8.10;99.90;;;;;;5073489;28;20046;-68
2021/05/13 03:40:31;;;;;;;133.30;73.55;;;8.20;99.90;;;;;;5072541;28;20369;-68
2021/05/13 03:42:58;;;;;;;137.50;75.95;;;8.20;99.90;;;;;;5073260;28;20020;-68
2021/05/13 03:45:24;;;;;;;120.45;68.45;;;8.20;99.90;;;;;;5076990;28;20099;-69
2021/05/13 03:47:49;;;;;;;115.18;67.22;;;8.10;99.90;;;;;;5076696;28;20032;-68
2021/05/13 03:50:15;;;;;;;107.15;63.33;;;8.10;99.90;;;;;;5077158;28;20042;-68
2021/05/13 03:52:41;;;;;;;110.65;63.10;;;8.00;99.90;;;;;;5077141;28;20021;-68
2021/05/13 03:55:07;;;;;;;108.40;62.40;;;8.00;99.90;;;;;;5076808;28;20078;-68
2021/05/13 03:57:33;;;;;;;100.85;59.33;;;8.00;99.90;;;;;;5074997;28;20045;-68
2021/05/13 04:00:01;;;;;;;96.28;56.75;;;7.90;99.90;;;;;;5076735;28;20031;-68
2021/05/13 04:02:32;;;;;;;99.75;57.33;;;7.80;99.90;;;;;;5077507;28;20040;-68
2021/05/13 04:04:58;;;;;;;100.53;58.45;;;7.80;99.90;;;;;;5076917;28;20012;-68
2021/05/13 04:07:27;;;;;;;102.30;59.20;;;7.90;99.90;;;;;;5076597;28;20036;-68
2021/05/13 04:09:54;;;;;;;97.53;58.22;;;7.90;99.90;;;;;;5076837;28;20021;-68
2021/05/13 04:12:20;;;;;;;97.80;57.85;;;8.00;99.90;;;;;;5076767;28;20029;-68
2021/05/13 04:14:45;;;;;;;91.35;55.40;;;8.00;99.90;;;;;;5076174;28;20031;-68
2021/05/13 04:17:11;;;;;;;88.80;54.85;;;8.00;99.90;;;;;;5076164;28;20433;-68
2021/05/13 04:19:36;;;;;;;78.85;52.00;;;8.00;99.90;;;;;;5076624;28;20112;-68
2021/05/13 04:22:03;;;;;;;82.20;50.65;;;8.10;99.90;;;;;;5076329;28;20035;-69
2021/05/13 04:24:28;;;;;;;83.82;52.92;;;8.10;99.90;;;;;;5076555;28;20058;-68
2021/05/13 04:26:54;;;;;;;85.78;54.30;;;8.20;99.90;;;;;;5076528;28;20400;-68
2021/05/13 04:29:20;;;;;;;83.75;52.53;;;8.20;99.90;;;;;;5076473;28;20035;-68
2021/05/13 04:31:45;;;;;;;83.85;53.88;;;8.40;99.90;;;;;;5076436;28;20029;-68
2021/05/13 04:34:11;;;;;;;72.40;48.28;;;8.60;99.90;;;;;;5076414;28;20035;-68
2021/05/13 04:36:36;;;;;;;73.35;49.45;;;8.80;99.90;;;;;;5076284;28;20025;-69
2021/05/13 04:39:03;;;;;;;60.67;43.40;;;9.10;99.90;;;;;;5076052;28;20025;-69
2021/05/13 04:41:31;;;;;;;54.70;39.05;;;9.50;99.90;;;;;;5075123;28;20021;-69
2021/05/13 04:43:58;;;;;;;48.38;36.13;;;9.90;99.90;;;;;;5075956;28;20017;-68
2021/05/13 04:46:26;;;;;;;43.35;34.80;;;10.40;99.90;;;;;;5075841;28;20458;-69
2021/05/13 04:51:26;;;;;;;43.83;32.25;;;11.50;99.90;;;;;;5075461;28;20047;-69
2021/05/13 04:53:52;;;;;;;40.92;32.28;;;11.80;99.90;;;;;;5074203;28;20405;-69
2021/05/13 04:56:19;;;;;;;43.35;32.70;;;11.60;99.90;;;;;;5075493;28;20029;-69
2021/05/13 04:58:45;;;;;;;42.92;32.53;;;11.60;99.90;;;;;;5075635;28;20027;-69
2021/05/13 05:01:11;;;;;;;37.70;32.55;;;11.30;99.90;;;;;;5075604;28;20030;-69
2021/05/13 05:03:36;;;;;;;45.45;34.58;;;11.50;99.90;;;;;;5075569;28;20100;-69
2021/05/13 05:06:02;;;;;;;38.65;32.28;;;11.50;99.90;;;;;;5075794;28;20027;-69
2021/05/13 05:08:28;;;;;;;41.72;33.08;;;11.60;99.90;;;;;;5075161;28;20055;-69
2021/05/13 05:10:53;;;;;;;41.78;32.47;;;11.70;99.90;;;;;;5075704;28;20063;-69
2021/05/13 05:13:19;;;;;;;42.38;34.88;;;11.90;99.90;;;;;;5075331;28;20028;-69
2021/05/13 05:15:44;;;;;;;43.83;34.53;;;11.80;99.90;;;;;;5075481;28;20423;-69
2021/05/13 05:18:17;;;;;;;44.80;34.65;;;12.00;99.90;;;;;;5074092;28;20534;-68
2021/05/13 05:20:42;;;;;;;45.87;37.30;;;11.90;99.90;;;;;;5075271;28;20343;-66
2021/05/13 05:23:08;;;;;;;45.47;37.42;;;11.90;99.90;;;;;;5074874;28;20039;-69
2021/05/13 05:25:33;;;;;;;47.85;39.08;;;12.00;99.90;;;;;;5075449;28;20028;-69
2021/05/13 05:27:59;;;;;;;46.70;37.33;;;12.40;99.90;;;;;;5075377;28;20358;-68
2021/05/13 05:30:24;;;;;;;39.53;33.80;;;12.70;99.90;;;;;;5075310;28;20465;-69
2021/05/13 05:32:50;;;;;;;40.40;33.60;;;13.50;99.90;;;;;;5074984;28;20024;-68
2021/05/13 05:35:15;;;;;;;39.67;32.25;;;13.90;99.90;;;;;;5073683;28;20028;-69
2021/05/13 05:37:41;;;;;;;36.08;31.55;;;14.00;99.90;;;;;;5075094;28;20032;-69
2021/05/13 05:40:08;;;;;;;35.70;30.73;;;14.40;99.90;;;;;;5074485;28;20023;-69
2021/05/13 05:42:34;;;;;;;37.55;29.73;;;14.50;99.90;;;;;;5074799;28;20022;-69
2021/05/13 05:44:59;;;;;;;37.72;30.67;;;15.30;99.90;;;;;;5075006;28;20024;-69
2021/05/13 05:47:25;;;;;;;32.33;27.77;;;15.40;99.90;;;;;;5073425;28;20366;-69
2021/05/13 05:49:50;;;;;;;32.17;28.55;;;16.30;99.90;;;;;;5074678;28;20029;-69
2021/05/13 05:52:16;;;;;;;30.45;27.33;;;17.10;99.90;;;;;;5074876;28;20485;-69
2021/05/13 05:54:41;;;;;;;30.80;27.20;;;16.90;99.90;;;;;;5074293;28;20024;-69
2021/05/13 05:57:07;;;;;;;31.00;26.60;;;17.30;99.90;;;;;;5074212;28;20102;-69
2021/05/13 05:59:32;;;;;;;30.48;26.63;;;17.50;99.90;;;;;;5074402;28;20442;-69
2021/05/13 06:01:58;;;;;;;30.90;27.70;;;17.70;99.90;;;;;;5074677;28;20417;-69
2021/05/13 06:04:23;;;;;;;29.52;26.48;;;17.80;99.90;;;;;;5074651;28;20028;-69
2021/05/13 06:06:49;;;;;;;33.72;26.98;;;17.60;99.90;;;;;;5074124;28;20028;-69
2021/05/13 06:09:15;;;;;;;29.95;26.85;;;17.80;99.90;;;;;;5074239;28;20469;-69
2021/05/13 06:11:40;;;;;;;29.02;26.10;;;17.80;99.90;;;;;;5072744;28;20071;-69
2021/05/13 06:14:06;;;;;;;29.30;26.50;;;17.90;99.90;;;;;;5074210;28;20489;-69
2021/05/13 06:16:31;;;;;;;31.83;28.58;;;17.50;99.90;;;;;;5073808;28;20028;-69
2021/05/13 06:18:58;;;;;;;31.00;27.83;;;18.00;99.90;;;;;;5072950;28;20074;-69
2021/05/13 06:21:25;;;;;;;32.65;29.10;;;18.40;99.90;;;;;;5074389;28;20027;-69
2021/05/13 06:23:54;;;;;;;32.38;29.05;;;18.60;99.90;;;;;;5074104;28;20041;-69
2021/05/13 06:26:22;;;;;;;31.83;28.45;;;18.30;99.90;;;;;;5074326;28;20029;-69
2021/05/13 06:28:48;;;;;;;32.97;29.45;;;18.60;99.90;;;;;;5074017;28;20021;-69
2021/05/13 06:31:13;;;;;;;35.10;31.25;;;18.40;99.90;;;;;;5073868;28;20382;-69
2021/05/13 06:33:39;;;;;;;36.08;31.35;;;18.70;99.90;;;;;;5074209;28;20035;-69
2021/05/13 06:36:04;;;;;;;36.65;32.80;;;18.80;99.90;;;;;;5074179;28;20462;-70
2021/05/13 06:38:31;;;;;;;37.40;33.47;;;18.80;99.90;;;;;;5073801;28;20039;-70
2021/05/13 06:40:57;;;;;;;35.13;31.35;;;18.70;99.90;;;;;;5074122;28;20516;-69
2021/05/13 06:43:23;;;;;;;37.25;33.30;;;19.00;99.90;;;;;;5074131;28;20111;-69
2021/05/13 06:45:49;;;;;;;38.35;33.15;;;19.20;99.90;;;;;;5074068;28;20103;-70
2021/05/13 06:48:14;;;;;;;38.42;34.45;;;18.90;99.90;;;;;;5073054;28;20074;-70
2021/05/13 06:50:40;;;;;;;38.20;34.00;;;19.20;99.90;;;;;;5074342;28;20025;-70
2021/05/13 06:53:07;;;;;;;35.63;32.08;;;19.30;99.90;;;;;;5073711;28;20025;-70
2021/05/13 06:55:33;;;;;;;36.67;32.78;;;19.30;99.90;;;;;;5073994;28;20017;-70
2021/05/13 06:57:59;;;;;;;34.75;31.13;;;19.60;99.90;;;;;;5073335;28;20044;-70
2021/05/13 07:00:34;;;;;;;35.30;31.17;;;20.30;99.90;;;;;;5072210;28;20385;-70
2021/05/13 07:03:00;;;;;;;37.63;31.50;;;20.30;99.90;;;;;;5073931;28;20047;-70
2021/05/13 07:05:27;;;;;;;33.78;30.10;;;20.50;99.90;;;;;;5073900;28;20374;-70
2021/05/13 07:07:53;;;;;;;33.80;30.27;;;20.10;99.90;;;;;;5073864;28;20023;-70
2021/05/13 07:10:18;;;;;;;33.28;29.77;;;20.00;99.90;;;;;;5073829;28;20033;-70
2021/05/13 07:12:44;;;;;;;34.97;31.17;;;20.50;99.90;;;;;;5073838;28;20039;-69
2021/05/13 07:15:10;;;;;;;34.22;30.83;;;20.70;99.90;;;;;;5073542;28;20024;-70
2021/05/13 07:17:36;;;;;;;31.67;28.27;;;20.70;99.90;;;;;;5071901;28;20050;-70
2021/05/13 07:20:03;;;;;;;33.15;29.55;;;21.80;99.90;;;;;;5076929;28;20028;-70
2021/05/13 07:22:28;;;;;;;33.10;29.50;;;21.60;99.90;;;;;;5077503;28;20028;-70
2021/05/13 07:24:54;;;;;;;34.22;30.65;;;21.60;99.90;;;;;;5077732;28;20109;-69
2021/05/13 07:27:21;;;;;;;33.67;29.58;;;21.70;99.90;;;;;;5077698;28;20112;-70
2021/05/13 07:29:47;;;;;;;31.80;28.50;;;21.30;99.90;;;;;;5077299;28;20016;-69
2021/05/13 07:32:13;;;;;;;28.13;25.27;;;21.20;99.90;;;;;;5076999;28;20052;-69
2021/05/13 07:34:38;;;;;;;28.50;25.63;;;21.20;99.90;;;;;;5077270;28;20064;-69
2021/05/13 07:37:04;;;;;;;29.20;26.10;;;21.10;99.90;;;;;;5075955;28;20378;-70
2021/05/13 07:39:29;;;;;;;30.90;27.25;;;21.50;99.90;;;;;;5077421;28;20480;-70
2021/05/13 07:41:55;;;;;;;28.67;25.70;;;21.50;99.90;;;;;;5075966;28;20078;-70
2021/05/13 07:44:21;;;;;;;28.73;25.58;;;22.00;99.90;;;;;;5075954;28;20458;-70
2021/05/13 07:46:47;;;;;;;25.17;22.52;;;23.40;99.90;;;;;;5077046;28;20029;-70
2021/05/13 07:49:13;;;;;;;24.02;21.50;;;22.60;99.90;;;;;;5076981;28;20035;-70
2021/05/13 07:51:42;;;;;;;28.10;25.13;;;23.20;99.90;;;;;;5077201;28;20021;-70
2021/05/13 07:54:07;;;;;;;28.77;25.08;;;22.50;99.90;;;;;;5077134;28;20029;-69
2021/05/13 07:56:33;;;;;;;25.10;22.45;;;22.30;99.90;;;;;;5076266;28;20029;-70
2021/05/13 07:58:58;;;;;;;26.50;22.92;;;22.10;99.90;;;;;;5076783;28;20025;-70
2021/05/13 08:01:24;;;;;;;26.20;23.40;;;22.00;99.90;;;;;;5076620;28;20393;-70
2021/05/13 08:03:49;;;;;;;28.75;23.73;;;22.30;99.90;;;;;;5076999;28;20422;-70
2021/05/13 08:06:15;;;;;;;24.33;21.88;;;22.40;99.90;;;;;;5076380;28;20029;-70
2021/05/13 08:08:40;;;;;;;26.48;22.67;;;22.40;99.90;;;;;;5076626;28;20078;-70
2021/05/13 08:11:06;;;;;;;25.73;22.08;;;22.40;99.90;;;;;;5075551;28;20028;-70
2021/05/13 08:13:31;;;;;;;23.77;20.58;;;23.00;99.90;;;;;;5076824;28;20378;-70
2021/05/13 08:15:58;;;;;;;22.20;19.85;;;23.90;99.90;;;;;;5076758;28;20169;-70
2021/05/13 08:18:23;;;;;;;22.00;19.67;;;23.90;98.80;;;;;;5076686;28;20029;-70
2021/05/13 08:20:49;;;;;;;22.13;19.65;;;24.10;99.90;;;;;;5076673;28;20044;-70
2021/05/13 08:23:15;;;;;;;21.42;19.42;;;23.80;97.20;;;;;;5076094;28;20048;-70
2021/05/13 08:25:41;;;;;;;19.67;17.05;;;23.80;99.20;;;;;;5074826;28;20025;-70
2021/05/13 08:28:06;;;;;;;17.58;15.77;;;23.80;96.70;;;;;;5075957;28;20036;-70
2021/05/13 08:30:33;;;;;;;22.02;18.85;;;23.80;97.60;;;;;;5075974;28;20032;-70
2021/05/13 08:32:58;;;;;;;21.40;18.20;;;23.90;96.20;;;;;;5076471;28;20021;-70
2021/05/13 08:35:24;;;;;;;18.75;16.77;;;25.10;92.70;;;;;;5076138;28;20042;-70
2021/05/13 08:37:49;;;;;;;19.77;16.33;;;24.80;91.80;;;;;;5076289;28;20035;-70
2021/05/13 08:40:15;;;;;;;18.52;16.58;;;24.20;92.70;;;;;;5076299;28;20029;-70
2021/05/13 08:42:41;;;;;;;18.65;16.63;;;23.00;95.50;;;;;;5076280;28;20100;-70
2021/05/13 08:45:08;;;;;;;18.00;16.08;;;23.00;95.10;;;;;;5075938;28;20021;-70
2021/05/13 08:47:37;;;;;;;17.27;14.85;;;23.80;93.60;;;;;;5075969;28;20063;-70
2021/05/13 08:50:04;;;;;;;17.13;15.32;;;24.30;93.80;;;;;;5075761;28;20021;-70
2021/05/13 08:52:30;;;;;;;16.48;14.68;;;24.20;92.10;;;;;;5076112;28;20031;-70
2021/05/13 08:54:58;;;;;;;17.63;15.25;;;24.80;94.20;;;;;;5074595;28;20378;-70
2021/05/13 08:57:24;;;;;;;17.25;15.05;;;24.40;92.10;;;;;;5075521;28;20518;-70
2021/05/13 08:59:50;;;;;;;16.45;14.60;;;24.70;93.20;;;;;;5075945;28;20016;-70
2021/05/13 09:02:17;;;;;;;15.13;13.52;;;24.90;90.90;;;;;;5075883;28;20028;-70
2021/05/13 09:04:46;;;;;;;17.92;15.02;;;25.10;89.40;;;;;;5075576;28;20020;-70
2021/05/13 09:07:21;;;;;;;16.05;13.65;;;25.80;84.90;;;;;;5058449;28;20481;-70
2021/05/13 09:12:37;;;;;;;15.63;14.02;;;25.50;84.80;;;;;;5110948;27;20438;-69
2021/05/13 09:15:16;;;;;;;15.05;13.45;;;25.40;87.80;;;;;;5111948;28;20067;-69
2021/05/13 09:17:43;;;;;;;12.88;11.57;;;25.60;88.60;;;;;;5110204;28;20027;-69
2021/05/13 09:20:31;;;;;;;14.82;10.45;;;26.50;80.90;;;;;;5111183;28;20426;-69
2021/05/13 09:23:20;;;;;;;13.00;9.93;;;26.30;76.20;;;;;;5109926;28;20012;-69
2021/05/13 09:26:05;;;;;;;12.90;10.30;;;24.60;77.40;;;;;;5109797;28;20020;-69
2021/05/13 09:28:31;;;;;;;15.00;11.73;;;26.10;75.20;;;;;;5111711;28;20019;-71
2021/05/13 09:30:56;;;;;;;13.20;10.60;;;26.20;73.00;;;;;;5109687;28;20118;-70
2021/05/13 09:33:31;;;;;;;13.82;10.38;;;25.90;74.30;;;;;;5111609;28;20041;-70
2021/05/13 09:36:16;;;;;;;8.43;7.63;;;26.10;74.70;;;;;;5111580;28;20020;-71
2021/05/13 09:38:41;;;;;;;9.45;7.43;;;26.10;70.00;;;;;;5111533;28;20023;-71
2021/05/13 09:41:08;;;;;;;9.23;8.32;;;26.30;65.50;;;;;;5111464;28;20024;-70
2021/05/13 09:43:34;;;;;;;8.73;7.03;;;26.40;64.30;;;;;;5110863;28;20065;-70
2021/05/13 09:46:03;;;;;;;7.60;6.72;;;26.40;60.70;;;;;;5111396;28;20020;-70
2021/05/13 09:48:43;;;;;;;11.32;8.75;;;26.10;59.10;;;;;;5111654;28;20016;-71
2021/05/13 09:51:31;;;;;;;11.63;9.63;;;25.80;63.20;;;;;;5109708;28;20032;-70
2021/05/13 09:54:17;;;;;;;10.45;9.25;;;26.40;59.60;;;;;;5110612;28;20058;-70
2021/05/13 09:56:49;;;;;;;11.32;8.57;;;26.30;61.70;;;;;;5110616;28;20454;-70
2021/05/13 09:59:23;;;;;;;10.88;9.68;;;26.80;63.70;;;;;;5109649;28;20457;-70
2021/05/13 10:01:51;;;;;;;10.73;9.10;;;26.30;60.50;;;;;;5111343;28;20054;-70
2021/05/13 10:04:16;;;;;;;10.20;8.25;;;27.00;61.30;;;;;;5110018;28;20453;-71
2021/05/13 10:06:42;;;;;;;13.05;8.95;;;27.30;60.80;;;;;;5110983;28;20069;-71
2021/05/13 10:09:08;;;;;;;12.45;8.73;;;25.60;58.00;;;;;;5092148;28;20030;-71
2021/05/13 10:11:34;;;;;;;11.43;8.63;;;25.90;59.80;;;;;;5108734;28;20043;-71
2021/05/13 10:14:01;;;;;;;10.98;8.90;;;25.10;62.30;;;;;;5110806;28;20103;-70
2021/05/13 10:16:28;;;;;;;14.48;11.27;;;25.20;64.60;;;;;;5110785;28;20016;-71
2021/05/13 10:19:06;;;;;;;12.90;11.18;;;25.00;71.50;;;;;;5109324;28;20024;-71
2021/05/13 10:21:35;;;;;;;13.57;12.02;;;24.90;71.60;;;;;;5110134;28;20044;-70
2021/05/13 10:24:01;;;;;;;15.40;12.23;;;24.00;77.00;;;;;;5096588;28;20062;-70
2021/05/13 10:32:13;;;;;;;13.35;10.45;;;24.70;69.90;;;;;;5112300;27;20348;-69
2021/05/13 10:37:30;;;;;;;12.30;9.50;;;25.30;69.10;;;;;;5112238;27;20881;-70
2021/05/13 10:40:23;;;;;;;12.55;10.50;;;24.50;69.10;;;;;;5111585;28;20024;-69
2021/05/13 10:43:05;;;;;;;15.43;11.93;;;23.80;73.10;;;;;;5110923;28;20107;-70
2021/05/13 10:45:36;;;;;;;15.75;12.73;;;24.10;72.10;;;;;;5111859;28;20027;-69
2021/05/13 10:48:26;;;;;;;14.18;11.80;;;23.20;74.60;;;;;;5111780;28;20016;-69
2021/05/13 11:01:50;;;;;;;13.50;9.75;;;22.70;73.70;;;;;;5112139;27;20397;-69
2021/05/13 11:07:03;;;;;;;14.10;12.73;;;22.90;77.40;;;;;;5112059;27;20343;-70
2021/05/13 11:12:27;;;;;;;13.40;11.70;;;22.70;76.80;;;;;;5112162;27;20843;-70
2021/05/13 11:20:39;;;;;;;12.52;9.18;;;23.10;70.80;;;;;;5110921;27;20874;-71
2021/05/13 11:23:14;;;;;;;11.32;8.27;;;22.60;71.00;;;;;;5111890;28;20020;-71
2021/05/13 11:28:50;;;;;;;8.30;6.45;;;22.50;68.70;;;;;;5112171;27;20355;-71
2021/05/13 11:31:21;;;;;;;9.50;7.70;;;22.90;73.60;;;;;;5111644;28;20023;-71
2021/05/13 11:33:58;;;;;;;11.13;9.35;;;23.20;75.50;;;;;;5111540;28;20055;-71
2021/05/13 11:36:28;;;;;;;10.98;8.63;;;22.30;70.50;;;;;;5111517;28;20388;-71
2021/05/13 11:38:57;;;;;;;9.35;7.70;;;22.20;71.60;;;;;;5111213;28;20385;-71
2021/05/13 11:41:23;;;;;;;10.15;8.13;;;22.30;72.80;;;;;;5111622;28;20415;-71
2021/05/13 11:43:49;;;;;;;10.85;6.97;;;22.80;73.60;;;;;;5109953;28;20098;-71
2021/05/13 11:46:18;;;;;;;7.38;6.35;;;22.80;73.40;;;;;;5110928;28;20096;-71
2021/05/13 11:48:45;;;;;;;7.22;6.50;;;22.40;69.60;;;;;;5111274;28;20016;-71
2021/05/13 11:51:13;;;;;;;8.82;7.53;;;22.10;71.30;;;;;;5111411;28;20402;-71
2021/05/13 11:53:42;;;;;;;10.18;8.00;;;21.40;71.10;;;;;;5111472;28;20093;-71
2021/05/13 11:56:08;;;;;;;9.38;6.68;;;20.90;72.20;;;;;;5111165;28;20050;-71
2021/05/13 12:01:35;;;;;;;10.88;6.72;;;20.90;77.30;;;;;;5091888;27;20353;-69
2021/05/13 12:04:22;;;;;;;10.75;6.10;;;21.10;81.40;;;;;;5089743;28;20052;-69
2021/05/13 12:06:55;;;;;;;8.35;7.00;;;21.30;82.50;;;;;;5091275;28;20052;-69
2021/05/13 12:09:22;;;;;;;10.75;7.40;;;21.20;73.90;;;;;;5090917;28;20025;-69
2021/05/13 12:11:50;;;;;;;18.55;13.40;;;21.30;72.40;;;;;;5091427;28;20028;-71
2021/05/13 12:14:23;;;;;;;19.80;14.27;;;21.00;86.00;;;;;;5091350;28;20030;-71
2021/05/13 12:16:52;;;;;;;;;;;20.30;90.40;;;;;;5091827;28;20527;-71
2021/05/13 12:19:18;;;;;;;16.27;11.63;;;20.30;90.70;;;;;;5091263;28;19918;-71
2021/05/13 12:21:44;;;;;;;16.23;11.95;;;20.80;90.00;;;;;;5090915;28;20099;-71
2021/05/13 12:24:10;;;;;;;18.55;11.80;;;20.70;90.60;;;;;;5090765;28;20071;-71
2021/05/13 12:26:40;;;;;;;14.52;10.95;;;20.90;89.40;;;;;;5090900;28;20493;-71
2021/05/13 12:29:12;;;;;;;12.55;11.13;;;21.30;91.00;;;;;;5089339;28;20017;-71
2021/05/13 12:31:39;;;;;;;13.65;12.13;;;21.00;89.50;;;;;;5090523;28;20024;-71
2021/05/13 12:34:06;;;;;;;17.80;12.35;;;20.30;90.60;;;;;;5090988;28;20350;-71
2021/05/13 12:36:34;;;;;;;16.42;11.93;;;20.00;92.20;;;;;;5090693;28;20065;-71
2021/05/13 12:39:00;;;;;;;16.88;12.52;;;19.80;93.10;;;;;;5090331;28;20479;-71
2021/05/13 12:41:27;;;;;;;15.43;12.85;;;19.60;93.80;;;;;;5090769;28;20131;-71
2021/05/13 12:44:15;;;;;;;14.40;11.27;;;19.40;94.90;;;;;;5090804;28;20020;-71
2021/05/13 12:46:44;;;;;;;14.55;10.65;;;19.60;96.80;;;;;;5089251;28;20107;-71
2021/05/13 12:49:27;;;;;;;12.70;10.85;;;19.90;96.40;;;;;;5090134;28;20024;-71
2021/05/13 12:52:10;;;;;;;15.32;11.63;;;20.00;93.70;;;;;;5090482;28;20092;-71
2021/05/13 12:54:40;;;;;;;12.10;10.55;;;20.00;94.30;;;;;;5090699;28;20379;-71
2021/05/13 12:57:17;;;;;;;16.58;11.20;;;20.10;95.00;;;;;;5090032;28;20028;-70
2021/05/13 12:59:54;;;;;;;15.98;10.32;;;20.10;93.50;;;;;;5089902;28;20378;-70
2021/05/13 13:02:28;;;;;;;11.82;9.60;;;20.20;93.50;;;;;;5089026;28;20016;-70
2021/05/13 13:04:56;;;;;;;14.18;9.73;;;20.50;92.80;;;;;;5090175;28;20027;-70
2021/05/13 13:07:43;;;;;;;13.20;8.90;;;20.50;92.10;;;;;;5089831;28;20016;-71
2021/05/13 13:10:33;;;;;;;10.90;8.88;;;20.60;92.90;;;;;;5089742;28;20027;-70
2021/05/13 13:13:23;;;;;;;11.10;9.45;;;20.90;90.40;;;;;;5076244;28;20024;-71
2021/05/13 13:15:55;;;;;;;12.80;9.43;;;20.50;93.60;;;;;;5074919;28;20437;-70
2021/05/13 13:18:23;;;;;;;12.90;11.23;;;20.00;95.30;;;;;;5076732;28;20139;-70